ADDS METAR Data INFO
IDs: Format: Raw Decoded Include TAF

Data at: 1936 UTC 19 Jul 2018

KGPZ 191856Z AUTO VRB05KT 10SM CLR 26/18 A2982 RMK AO2 SLP096 T02560178
KGPZ 191756Z AUTO 17013G17KT 10SM SCT042 27/17 A2984 RMK AO2 SLP099 T02670172 10267 20156 57014
KGPZ 191656Z AUTO 14006KT 10SM SCT034 BKN045 BKN065 25/18 A2985 RMK AO2 SLP106 T02500178
KGPZ 191556Z AUTO 16007KT 10SM 24/18 A2986 RMK AO2 SLP108 T02440183
KGPZ 191456Z AUTO 15006KT 10SM 22/17 A2988 RMK AO2 SLP115 T02220172 56010
KGPZ 191356Z AUTO 15005KT 10SM CLR 20/16 A2988 RMK AO2 SLP117 T02000161
KGPZ 191256Z AUTO VRB03KT 10SM CLR 18/15 A2990 RMK AO2 SLP121 T01780150
KGPZ 191156Z AUTO 15003KT 10SM CLR 16/14 A2991 RMK AO2 SLP126 T01560139 10172 20133 58012
KGPZ 191056Z AUTO 00000KT 10SM CLR 14/13 A2992 RMK AO2 SLP130 T01390133
KGPZ 190956Z AUTO 00000KT 10SM CLR 14/13 A2993 RMK AO2 SLP135 T01390133
KGPZ 190856Z AUTO 13003KT 10SM SCT045 16/14 A2995 RMK AO2 SLP138 T01560144 58009
KGPZ 190756Z AUTO 15003KT 10SM FEW045 15/14 A2996 RMK AO2 SLP143 T01500139
KGPZ 190656Z AUTO 15003KT 10SM CLR 17/14 A2997 RMK AO2 SLP145 T01670144
KGPZ 190556Z AUTO 16004KT 10SM CLR 16/14 A2997 RMK AO2 SLP148 T01610144 10244 20161 402610100 58005
KGPZ 190456Z AUTO 16004KT 10SM CLR 17/15 A2998 RMK AO2 SLP150 T01720150
KGPZ 190356Z AUTO 16004KT 10SM CLR 17/16 A2999 RMK AO2 SLP155 T01720156
KGPZ 190256Z AUTO 17003KT 8SM CLR 18/16 A2999 RMK AO2 SLP154 T01780161 55005
KGPZ 190156Z AUTO 18003KT 10SM CLR 21/17 A2999 RMK AO2 SLP153 T02060167
KGPZ 190056Z AUTO 17005KT 10SM CLR 23/17 A3000 RMK AO2 SLP157 T02280167
KGPZ 182356Z AUTO 16003KT 10SM 24/17 A3001 RMK AO2 SLP160 T02390167 10261 20239 56016
KGPZ 182256Z AUTO 20004KT 10SM CLR 26/14 A3002 RMK AO2 SLP165 T02560144
KGPZ 182156Z AUTO 23006KT 10SM CLR 26/14 A3004 RMK AO2 SLP172 T02560144
KGPZ 182056Z AUTO 20006KT 10SM CLR 26/14 A3006 RMK AO2 SLP177 T02560144 56010
KGPZ 181956Z AUTO 22007KT 10SM FEW047 26/14 A3006 RMK AO2 SLP180 T02560144
KGPZ 181856Z AUTO 18008KT 8SM CLR 25/14 A3007 RMK AO2 SLP183 T02500144
KGPZ 181756Z AUTO VRB05KT 10SM SCT040 24/14 A3009 RMK AO2 SLP188 T02390144 10244 20122 58014
KGPZ 181656Z AUTO VRB04KT 10SM 23/14 A3011 RMK AO2 SLP196 T02330139 $
KGPZ 181556Z AUTO 18007KT 10SM CLR 23/15 A3012 RMK AO2 SLP201 T02280150
KGPZ 181456Z AUTO 18005KT 10SM 22/15 A3013 RMK AO2 SLP202 T02220150 58005
KGPZ 181256Z AUTO 15004KT 10SM CLR 17/14 A3015 RMK AO2 SLP207 T01720144
KGPZ 181156Z AUTO 00000KT 10SM CLR 12/12 A3014 RMK AO2 SLP209 T01220117 10128 20100 53001
KGPZ 181056Z AUTO 00000KT 10SM CLR 11/11 A3015 RMK AO2 SLP210 T01110106
KGPZ 180956Z AUTO 00000KT 10SM CLR 12/11 A3014 RMK AO2 SLP206 T01170111
KGPZ 180756Z AUTO 00000KT 6SM BR CLR 12/12 A3013 RMK AO2 SLP204 T01220117
KGPZ 180754Z AUTO 00000KT 3SM BR CLR 12/12 A3013 RMK AO2